sensor_id;sensor_type;location;lat;lon;timestamp;P1;durP1;ratioP1;P2;durP2;ratioP2
74512;SDS011;62992;52.052;8.550;2022-12-11T00:02:19;27.15;;;11.90;;
74512;SDS011;62992;52.052;8.550;2022-12-11T00:05:03;26.05;;;13.30;;
74512;SDS011;62992;52.052;8.550;2022-12-11T00:07:48;31.58;;;13.00;;
74512;SDS011;62992;52.052;8.550;2022-12-11T00:10:32;29.55;;;12.27;;
74512;SDS011;62992;52.052;8.550;2022-12-11T00:13:17;27.92;;;12.90;;
74512;SDS011;62992;52.052;8.550;2022-12-11T00:16:01;27.80;;;13.43;;
74512;SDS011;62992;52.052;8.550;2022-12-11T00:18:45;27.77;;;12.82;;
74512;SDS011;62992;52.052;8.550;2022-12-11T00:21:29;28.48;;;12.35;;
74512;SDS011;62992;52.052;8.550;2022-12-11T00:24:13;26.92;;;12.35;;
74512;SDS011;62992;52.052;8.550;2022-12-11T00:26:57;27.02;;;12.00;;
74512;SDS011;62992;52.052;8.550;2022-12-11T00:29:41;34.10;;;13.48;;
74512;SDS011;62992;52.052;8.550;2022-12-11T00:32:26;34.55;;;13.50;;
74512;SDS011;62992;52.052;8.550;2022-12-11T00:35:10;30.23;;;12.40;;
74512;SDS011;62992;52.052;8.550;2022-12-11T00:37:54;35.45;;;13.75;;
74512;SDS011;62992;52.052;8.550;2022-12-11T00:40:38;32.70;;;14.55;;
74512;SDS011;62992;52.052;8.550;2022-12-11T00:43:22;28.30;;;13.23;;
74512;SDS011;62992;52.052;8.550;2022-12-11T00:46:06;32.92;;;14.30;;
74512;SDS011;62992;52.052;8.550;2022-12-11T00:48:51;29.30;;;13.07;;
74512;SDS011;62992;52.052;8.550;2022-12-11T00:51:36;35.25;;;14.30;;
74512;SDS011;62992;52.052;8.550;2022-12-11T00:54:20;33.80;;;14.23;;
74512;SDS011;62992;52.052;8.550;2022-12-11T00:57:04;29.67;;;12.45;;
74512;SDS011;62992;52.052;8.550;2022-12-11T00:59:48;33.47;;;14.02;;
74512;SDS011;62992;52.052;8.550;2022-12-11T01:02:32;40.28;;;16.08;;
74512;SDS011;62992;52.052;8.550;2022-12-11T01:05:17;44.17;;;15.93;;
74512;SDS011;62992;52.052;8.550;2022-12-11T01:08:02;41.50;;;14.80;;
74512;SDS011;62992;52.052;8.550;2022-12-11T01:10:46;44.25;;;17.13;;
74512;SDS011;62992;52.052;8.550;2022-12-11T01:13:31;43.30;;;16.90;;
74512;SDS011;62992;52.052;8.550;2022-12-11T01:16:15;46.42;;;16.05;;
74512;SDS011;62992;52.052;8.550;2022-12-11T01:18:59;41.10;;;14.70;;
74512;SDS011;62992;52.052;8.550;2022-12-11T01:21:43;40.15;;;16.05;;
74512;SDS011;62992;52.052;8.550;2022-12-11T01:24:27;42.67;;;17.55;;
74512;SDS011;62992;52.052;8.550;2022-12-11T01:27:11;43.63;;;17.05;;
74512;SDS011;62992;52.052;8.550;2022-12-11T01:29:55;43.55;;;17.95;;
74512;SDS011;62992;52.052;8.550;2022-12-11T01:32:39;38.05;;;15.50;;
74512;SDS011;62992;52.052;8.550;2022-12-11T01:35:23;46.13;;;16.85;;
74512;SDS011;62992;52.052;8.550;2022-12-11T01:38:08;46.80;;;16.65;;
74512;SDS011;62992;52.052;8.550;2022-12-11T01:40:53;42.53;;;16.27;;
74512;SDS011;62992;52.052;8.550;2022-12-11T01:46:50;46.03;;;17.35;;
74512;SDS011;62992;52.052;8.550;2022-12-11T01:49:34;50.47;;;18.27;;
74512;SDS011;62992;52.052;8.550;2022-12-11T01:52:21;50.05;;;18.10;;
74512;SDS011;62992;52.052;8.550;2022-12-11T01:55:05;46.65;;;18.40;;
74512;SDS011;62992;52.052;8.550;2022-12-11T01:57:51;61.92;;;20.58;;
74512;SDS011;62992;52.052;8.550;2022-12-11T02:00:36;61.50;;;20.53;;
74512;SDS011;62992;52.052;8.550;2022-12-11T02:03:21;64.07;;;20.52;;
74512;SDS011;62992;52.052;8.550;2022-12-11T02:06:26;57.42;;;19.45;;
74512;SDS011;62992;52.052;8.550;2022-12-11T02:09:13;57.42;;;20.42;;
74512;SDS011;62992;52.052;8.550;2022-12-11T02:21:27;53.92;;;18.98;;
74512;SDS011;62992;52.052;8.550;2022-12-11T02:24:25;66.57;;;20.00;;
74512;SDS011;62992;52.052;8.550;2022-12-11T02:27:38;59.65;;;19.30;;
74512;SDS011;62992;52.052;8.550;2022-12-11T02:30:28;55.78;;;19.30;;
74512;SDS011;62992;52.052;8.550;2022-12-11T02:33:13;54.63;;;18.95;;
74512;SDS011;62992;52.052;8.550;2022-12-11T02:35:59;51.67;;;20.17;;
74512;SDS011;62992;52.052;8.550;2022-12-11T02:38:46;57.17;;;19.95;;
74512;SDS011;62992;52.052;8.550;2022-12-11T02:41:34;52.67;;;18.85;;
74512;SDS011;62992;52.052;8.550;2022-12-11T02:44:26;53.70;;;19.45;;
74512;SDS011;62992;52.052;8.550;2022-12-11T02:47:14;56.72;;;18.27;;
74512;SDS011;62992;52.052;8.550;2022-12-11T02:50:00;64.88;;;19.55;;
74512;SDS011;62992;52.052;8.550;2022-12-11T02:52:47;58.00;;;19.17;;
74512;SDS011;62992;52.052;8.550;2022-12-11T02:55:34;48.92;;;17.77;;
74512;SDS011;62992;52.052;8.550;2022-12-11T02:58:22;51.35;;;18.30;;
74512;SDS011;62992;52.052;8.550;2022-12-11T03:01:09;62.10;;;19.10;;
74512;SDS011;62992;52.052;8.550;2022-12-11T03:03:54;51.38;;;19.75;;
74512;SDS011;62992;52.052;8.550;2022-12-11T03:06:40;62.85;;;20.92;;
74512;SDS011;62992;52.052;8.550;2022-12-11T03:09:28;58.05;;;18.58;;
74512;SDS011;62992;52.052;8.550;2022-12-11T03:12:19;69.15;;;19.65;;
74512;SDS011;62992;52.052;8.550;2022-12-11T03:15:18;58.15;;;18.98;;
74512;SDS011;62992;52.052;8.550;2022-12-11T03:21:07;51.72;;;18.52;;
74512;SDS011;62992;52.052;8.550;2022-12-11T03:24:19;60.33;;;20.23;;
74512;SDS011;62992;52.052;8.550;2022-12-11T03:27:22;57.97;;;19.77;;
74512;SDS011;62992;52.052;8.550;2022-12-11T03:30:16;56.95;;;17.98;;
74512;SDS011;62992;52.052;8.550;2022-12-11T03:33:03;44.67;;;18.50;;
74512;SDS011;62992;52.052;8.550;2022-12-11T03:36:10;54.70;;;18.33;;
74512;SDS011;62992;52.052;8.550;2022-12-11T03:39:09;51.92;;;18.95;;
74512;SDS011;62992;52.052;8.550;2022-12-11T03:42:04;54.40;;;21.13;;
74512;SDS011;62992;52.052;8.550;2022-12-11T03:44:52;60.55;;;19.77;;
74512;SDS011;62992;52.052;8.550;2022-12-11T03:47:39;55.33;;;19.70;;
74512;SDS011;62992;52.052;8.550;2022-12-11T03:53:10;52.00;;;16.77;;
74512;SDS011;62992;52.052;8.550;2022-12-11T03:55:55;62.20;;;18.40;;
74512;SDS011;62992;52.052;8.550;2022-12-11T03:58:41;61.15;;;20.55;;
74512;SDS011;62992;52.052;8.550;2022-12-11T04:01:26;59.63;;;20.92;;
74512;SDS011;62992;52.052;8.550;2022-12-11T04:04:10;59.08;;;18.55;;
74512;SDS011;62992;52.052;8.550;2022-12-11T04:06:54;59.08;;;18.95;;
74512;SDS011;62992;52.052;8.550;2022-12-11T04:09:38;55.28;;;18.58;;
74512;SDS011;62992;52.052;8.550;2022-12-11T04:12:23;60.88;;;20.90;;
74512;SDS011;62992;52.052;8.550;2022-12-11T04:15:07;57.22;;;20.90;;
74512;SDS011;62992;52.052;8.550;2022-12-11T04:17:51;52.53;;;19.92;;
74512;SDS011;62992;52.052;8.550;2022-12-11T04:20:54;66.28;;;20.75;;
74512;SDS011;62992;52.052;8.550;2022-12-11T04:23:58;57.30;;;19.60;;
74512;SDS011;62992;52.052;8.550;2022-12-11T04:27:00;53.45;;;18.85;;
74512;SDS011;62992;52.052;8.550;2022-12-11T04:29:44;52.20;;;19.30;;
74512;SDS011;62992;52.052;8.550;2022-12-11T04:32:28;54.80;;;20.10;;
74512;SDS011;62992;52.052;8.550;2022-12-11T04:35:12;46.75;;;17.92;;
74512;SDS011;62992;52.052;8.550;2022-12-11T04:37:57;54.67;;;18.23;;
74512;SDS011;62992;52.052;8.550;2022-12-11T04:40:41;53.20;;;19.42;;
74512;SDS011;62992;52.052;8.550;2022-12-11T04:43:26;56.63;;;19.50;;
74512;SDS011;62992;52.052;8.550;2022-12-11T04:46:12;60.97;;;19.38;;
74512;SDS011;62992;52.052;8.550;2022-12-11T04:48:58;53.13;;;17.45;;
74512;SDS011;62992;52.052;8.550;2022-12-11T04:51:43;56.85;;;19.98;;
74512;SDS011;62992;52.052;8.550;2022-12-11T04:54:30;53.75;;;19.42;;
74512;SDS011;62992;52.052;8.550;2022-12-11T04:57:14;55.28;;;17.85;;
74512;SDS011;62992;52.052;8.550;2022-12-11T04:59:59;58.88;;;19.27;;
74512;SDS011;62992;52.052;8.550;2022-12-11T05:02:44;56.03;;;18.80;;
74512;SDS011;62992;52.052;8.550;2022-12-11T05:05:28;55.35;;;19.42;;
74512;SDS011;62992;52.052;8.550;2022-12-11T05:08:13;53.78;;;20.42;;
74512;SDS011;62992;52.052;8.550;2022-12-11T05:10:59;54.03;;;18.42;;
74512;SDS011;62992;52.052;8.550;2022-12-11T05:13:44;58.22;;;20.23;;
74512;SDS011;62992;52.052;8.550;2022-12-11T05:16:28;58.63;;;18.55;;
74512;SDS011;62992;52.052;8.550;2022-12-11T05:19:12;54.30;;;17.95;;
74512;SDS011;62992;52.052;8.550;2022-12-11T05:21:56;61.45;;;18.98;;
74512;SDS011;62992;52.052;8.550;2022-12-11T05:24:40;46.28;;;16.30;;
74512;SDS011;62992;52.052;8.550;2022-12-11T05:27:24;54.80;;;18.83;;
74512;SDS011;62992;52.052;8.550;2022-12-11T05:30:09;52.75;;;17.33;;
74512;SDS011;62992;52.052;8.550;2022-12-11T05:32:53;57.13;;;17.90;;
74512;SDS011;62992;52.052;8.550;2022-12-11T05:35:37;50.95;;;16.50;;
74512;SDS011;62992;52.052;8.550;2022-12-11T05:38:22;50.10;;;17.27;;
74512;SDS011;62992;52.052;8.550;2022-12-11T05:41:06;51.25;;;17.98;;
74512;SDS011;62992;52.052;8.550;2022-12-11T05:43:52;43.92;;;15.48;;
74512;SDS011;62992;52.052;8.550;2022-12-11T05:46:36;40.13;;;14.93;;
74512;SDS011;62992;52.052;8.550;2022-12-11T05:49:20;50.03;;;16.13;;
74512;SDS011;62992;52.052;8.550;2022-12-11T05:52:04;43.63;;;14.15;;
74512;SDS011;62992;52.052;8.550;2022-12-11T05:54:48;43.65;;;14.85;;
74512;SDS011;62992;52.052;8.550;2022-12-11T05:57:32;40.33;;;13.68;;
74512;SDS011;62992;52.052;8.550;2022-12-11T06:00:17;37.80;;;13.45;;
74512;SDS011;62992;52.052;8.550;2022-12-11T06:03:01;32.47;;;12.25;;
74512;SDS011;62992;52.052;8.550;2022-12-11T06:05:45;36.15;;;14.30;;
74512;SDS011;62992;52.052;8.550;2022-12-11T06:08:29;41.70;;;13.07;;
74512;SDS011;62992;52.052;8.550;2022-12-11T06:11:13;44.38;;;14.15;;
74512;SDS011;62992;52.052;8.550;2022-12-11T06:13:57;38.33;;;12.95;;
74512;SDS011;62992;52.052;8.550;2022-12-11T06:16:41;37.25;;;13.30;;
74512;SDS011;62992;52.052;8.550;2022-12-11T06:19:25;38.97;;;12.00;;
74512;SDS011;62992;52.052;8.550;2022-12-11T06:22:10;39.15;;;13.38;;
74512;SDS011;62992;52.052;8.550;2022-12-11T06:24:54;40.90;;;13.00;;
74512;SDS011;62992;52.052;8.550;2022-12-11T06:27:38;33.33;;;12.98;;
74512;SDS011;62992;52.052;8.550;2022-12-11T06:30:22;40.13;;;13.02;;
74512;SDS011;62992;52.052;8.550;2022-12-11T06:33:06;37.38;;;12.73;;
74512;SDS011;62992;52.052;8.550;2022-12-11T06:35:50;39.70;;;13.52;;
74512;SDS011;62992;52.052;8.550;2022-12-11T06:38:35;41.80;;;14.77;;
74512;SDS011;62992;52.052;8.550;2022-12-11T06:41:19;41.58;;;13.55;;
74512;SDS011;62992;52.052;8.550;2022-12-11T06:44:03;48.65;;;13.65;;
74512;SDS011;62992;52.052;8.550;2022-12-11T06:46:47;39.75;;;13.10;;
74512;SDS011;62992;52.052;8.550;2022-12-11T06:49:32;44.42;;;14.82;;
74512;SDS011;62992;52.052;8.550;2022-12-11T06:52:16;43.28;;;14.18;;
74512;SDS011;62992;52.052;8.550;2022-12-11T06:55:00;45.05;;;14.55;;
74512;SDS011;62992;52.052;8.550;2022-12-11T06:57:44;47.42;;;14.02;;
74512;SDS011;62992;52.052;8.550;2022-12-11T07:00:28;36.83;;;12.85;;
74512;SDS011;62992;52.052;8.550;2022-12-11T07:03:12;42.33;;;13.82;;
74512;SDS011;62992;52.052;8.550;2022-12-11T07:06:00;42.85;;;13.32;;
74512;SDS011;62992;52.052;8.550;2022-12-11T07:08:45;42.60;;;13.73;;
74512;SDS011;62992;52.052;8.550;2022-12-11T07:11:29;44.85;;;14.10;;
74512;SDS011;62992;52.052;8.550;2022-12-11T07:14:13;35.03;;;12.55;;
74512;SDS011;62992;52.052;8.550;2022-12-11T07:16:57;50.15;;;14.32;;
74512;SDS011;62992;52.052;8.550;2022-12-11T07:19:42;40.72;;;14.23;;
74512;SDS011;62992;52.052;8.550;2022-12-11T07:22:27;50.10;;;15.45;;
74512;SDS011;62992;52.052;8.550;2022-12-11T07:25:12;40.95;;;12.98;;
74512;SDS011;62992;52.052;8.550;2022-12-11T07:27:57;51.37;;;14.03;;
74512;SDS011;62992;52.052;8.550;2022-12-11T07:30:41;43.70;;;12.95;;
74512;SDS011;62992;52.052;8.550;2022-12-11T07:33:25;45.88;;;13.18;;
74512;SDS011;62992;52.052;8.550;2022-12-11T07:36:10;46.25;;;13.50;;
74512;SDS011;62992;52.052;8.550;2022-12-11T07:38:55;36.40;;;12.40;;
74512;SDS011;62992;52.052;8.550;2022-12-11T07:41:39;39.63;;;11.32;;
74512;SDS011;62992;52.052;8.550;2022-12-11T07:44:23;40.38;;;11.35;;
74512;SDS011;62992;52.052;8.550;2022-12-11T07:47:07;39.67;;;12.70;;
74512;SDS011;62992;52.052;8.550;2022-12-11T07:49:51;43.60;;;13.82;;
74512;SDS011;62992;52.052;8.550;2022-12-11T07:52:35;40.45;;;13.20;;
74512;SDS011;62992;52.052;8.550;2022-12-11T07:55:19;53.40;;;13.25;;
74512;SDS011;62992;52.052;8.550;2022-12-11T07:58:03;38.75;;;11.13;;
74512;SDS011;62992;52.052;8.550;2022-12-11T08:00:48;42.22;;;13.73;;
74512;SDS011;62992;52.052;8.550;2022-12-11T08:03:32;41.35;;;12.45;;
74512;SDS011;62992;52.052;8.550;2022-12-11T08:06:16;38.60;;;12.20;;
74512;SDS011;62992;52.052;8.550;2022-12-11T08:09:04;41.70;;;11.00;;
74512;SDS011;62992;52.052;8.550;2022-12-11T08:11:50;40.33;;;12.90;;
74512;SDS011;62992;52.052;8.550;2022-12-11T08:14:35;36.25;;;12.32;;
74512;SDS011;62992;52.052;8.550;2022-12-11T08:17:19;38.25;;;11.52;;
74512;SDS011;62992;52.052;8.550;2022-12-11T08:20:04;42.13;;;11.95;;
74512;SDS011;62992;52.052;8.550;2022-12-11T08:22:48;42.05;;;12.25;;
74512;SDS011;62992;52.052;8.550;2022-12-11T08:25:32;39.85;;;13.63;;
74512;SDS011;62992;52.052;8.550;2022-12-11T08:28:16;52.13;;;13.60;;
74512;SDS011;62992;52.052;8.550;2022-12-11T08:31:02;40.25;;;13.00;;
74512;SDS011;62992;52.052;8.550;2022-12-11T08:33:51;45.00;;;12.43;;
74512;SDS011;62992;52.052;8.550;2022-12-11T08:36:38;40.47;;;12.93;;
74512;SDS011;62992;52.052;8.550;2022-12-11T08:39:23;35.67;;;10.80;;
74512;SDS011;62992;52.052;8.550;2022-12-11T08:42:07;36.15;;;11.95;;
74512;SDS011;62992;52.052;8.550;2022-12-11T08:44:52;33.42;;;11.25;;
74512;SDS011;62992;52.052;8.550;2022-12-11T08:47:36;38.65;;;12.45;;
74512;SDS011;62992;52.052;8.550;2022-12-11T08:50:21;35.50;;;10.77;;
74512;SDS011;62992;52.052;8.550;2022-12-11T08:53:05;37.20;;;9.75;;
74512;SDS011;62992;52.052;8.550;2022-12-11T08:55:49;33.88;;;10.25;;
74512;SDS011;62992;52.052;8.550;2022-12-11T08:58:34;37.55;;;11.68;;
74512;SDS011;62992;52.052;8.550;2022-12-11T09:01:23;38.00;;;11.68;;
74512;SDS011;62992;52.052;8.550;2022-12-11T09:04:09;31.23;;;10.43;;
74512;SDS011;62992;52.052;8.550;2022-12-11T09:06:53;33.80;;;9.88;;
74512;SDS011;62992;52.052;8.550;2022-12-11T09:09:37;30.27;;;10.13;;
74512;SDS011;62992;52.052;8.550;2022-12-11T09:12:21;34.92;;;10.40;;
74512;SDS011;62992;52.052;8.550;2022-12-11T09:15:05;32.58;;;10.55;;
74512;SDS011;62992;52.052;8.550;2022-12-11T09:17:50;38.13;;;10.50;;
74512;SDS011;62992;52.052;8.550;2022-12-11T09:20:34;33.88;;;10.82;;
74512;SDS011;62992;52.052;8.550;2022-12-11T09:23:18;39.80;;;12.90;;
74512;SDS011;62992;52.052;8.550;2022-12-11T09:26:03;37.50;;;12.05;;
74512;SDS011;62992;52.052;8.550;2022-12-11T09:28:48;37.17;;;11.93;;
74512;SDS011;62992;52.052;8.550;2022-12-11T09:31:36;36.33;;;11.73;;
74512;SDS011;62992;52.052;8.550;2022-12-11T09:34:20;36.42;;;11.73;;
74512;SDS011;62992;52.052;8.550;2022-12-11T09:37:05;29.55;;;10.18;;
74512;SDS011;62992;52.052;8.550;2022-12-11T09:39:48;34.08;;;10.82;;
74512;SDS011;62992;52.052;8.550;2022-12-11T09:42:41;29.60;;;9.07;;
74512;SDS011;62992;52.052;8.550;2022-12-11T09:45:39;32.92;;;11.52;;
74512;SDS011;62992;52.052;8.550;2022-12-11T09:48:23;34.83;;;11.38;;
74512;SDS011;62992;52.052;8.550;2022-12-11T09:51:12;31.80;;;11.83;;
74512;SDS011;62992;52.052;8.550;2022-12-11T09:53:59;28.73;;;9.50;;
74512;SDS011;62992;52.052;8.550;2022-12-11T09:56:48;25.33;;;9.45;;
74512;SDS011;62992;52.052;8.550;2022-12-11T09:59:40;26.83;;;9.77;;
74512;SDS011;62992;52.052;8.550;2022-12-11T10:03:21;35.30;;;10.35;;
74512;SDS011;62992;52.052;8.550;2022-12-11T10:18:27;27.52;;;9.65;;
74512;SDS011;62992;52.052;8.550;2022-12-11T10:21:14;25.92;;;10.05;;
74512;SDS011;62992;52.052;8.550;2022-12-11T10:24:01;27.90;;;10.52;;
74512;SDS011;62992;52.052;8.550;2022-12-11T10:26:48;28.45;;;11.32;;
74512;SDS011;62992;52.052;8.550;2022-12-11T10:29:38;61.30;;;19.42;;
74512;SDS011;62992;52.052;8.550;2022-12-11T10:32:23;41.28;;;14.85;;
74512;SDS011;62992;52.052;8.550;2022-12-11T10:38:30;30.70;;;11.48;;
74512;SDS011;62992;52.052;8.550;2022-12-11T10:41:17;37.60;;;14.13;;
74512;SDS011;62992;52.052;8.550;2022-12-11T10:44:17;34.28;;;14.18;;
74512;SDS011;62992;52.052;8.550;2022-12-11T10:47:09;24.50;;;10.25;;
74512;SDS011;62992;52.052;8.550;2022-12-11T10:49:59;28.27;;;11.05;;
74512;SDS011;62992;52.052;8.550;2022-12-11T10:52:44;29.02;;;10.93;;
74512;SDS011;62992;52.052;8.550;2022-12-11T10:58:46;28.15;;;10.13;;
74512;SDS011;62992;52.052;8.550;2022-12-11T11:01:33;27.75;;;10.73;;
74512;SDS011;62992;52.052;8.550;2022-12-11T11:04:19;27.52;;;10.57;;
74512;SDS011;62992;52.052;8.550;2022-12-11T11:07:13;28.50;;;10.95;;
74512;SDS011;62992;52.052;8.550;2022-12-11T11:13:00;27.02;;;10.70;;
74512;SDS011;62992;52.052;8.550;2022-12-11T11:15:45;27.35;;;12.23;;
74512;SDS011;62992;52.052;8.550;2022-12-11T11:18:29;24.45;;;11.13;;
74512;SDS011;62992;52.052;8.550;2022-12-11T11:21:14;27.07;;;12.40;;
74512;SDS011;62992;52.052;8.550;2022-12-11T11:24:00;27.80;;;11.63;;
74512;SDS011;62992;52.052;8.550;2022-12-11T11:26:46;26.55;;;11.65;;
74512;SDS011;62992;52.052;8.550;2022-12-11T11:29:31;26.80;;;10.50;;
74512;SDS011;62992;52.052;8.550;2022-12-11T11:32:30;22.98;;;9.80;;
74512;SDS011;62992;52.052;8.550;2022-12-11T11:35:18;25.15;;;9.95;;
74512;SDS011;62992;52.052;8.550;2022-12-11T11:44:07;24.15;;;10.02;;
74512;SDS011;62992;52.052;8.550;2022-12-11T11:47:03;23.30;;;9.25;;
74512;SDS011;62992;52.052;8.550;2022-12-11T11:50:21;25.35;;;10.80;;
74512;SDS011;62992;52.052;8.550;2022-12-11T11:53:11;31.02;;;11.43;;
74512;SDS011;62992;52.052;8.550;2022-12-11T11:56:14;21.40;;;8.75;;
74512;SDS011;62992;52.052;8.550;2022-12-11T12:01:50;19.65;;;7.45;;
74512;SDS011;62992;52.052;8.550;2022-12-11T12:04:36;23.33;;;8.82;;
74512;SDS011;62992;52.052;8.550;2022-12-11T12:10:16;16.70;;;7.50;;
74512;SDS011;62992;52.052;8.550;2022-12-11T12:13:13;14.00;;;6.65;;
74512;SDS011;62992;52.052;8.550;2022-12-11T12:16:27;11.27;;;6.22;;
74512;SDS011;62992;52.052;8.550;2022-12-11T12:19:55;12.73;;;5.32;;
74512;SDS011;62992;52.052;8.550;2022-12-11T12:22:55;11.38;;;5.18;;
74512;SDS011;62992;52.052;8.550;2022-12-11T12:26:01;12.30;;;5.13;;
74512;SDS011;62992;52.052;8.550;2022-12-11T12:29:15;11.50;;;5.00;;
74512;SDS011;62992;52.052;8.550;2022-12-11T12:32:26;13.88;;;6.13;;
74512;SDS011;62992;52.052;8.550;2022-12-11T12:35:36;15.02;;;7.20;;
74512;SDS011;62992;52.052;8.550;2022-12-11T12:38:29;13.05;;;6.68;;
74512;SDS011;62992;52.052;8.550;2022-12-11T12:41:40;13.02;;;5.40;;
74512;SDS011;62992;52.052;8.550;2022-12-11T12:44:40;10.20;;;5.18;;
74512;SDS011;62992;52.052;8.550;2022-12-11T12:47:33;14.05;;;6.57;;
74512;SDS011;62992;52.052;8.550;2022-12-11T12:50:28;14.00;;;6.40;;
74512;SDS011;62992;52.052;8.550;2022-12-11T12:53:25;16.17;;;6.47;;
74512;SDS011;62992;52.052;8.550;2022-12-11T12:56:12;15.32;;;6.55;;
74512;SDS011;62992;52.052;8.550;2022-12-11T12:58:57;17.63;;;7.30;;
74512;SDS011;62992;52.052;8.550;2022-12-11T13:01:44;15.30;;;6.72;;
74512;SDS011;62992;52.052;8.550;2022-12-11T13:04:36;14.40;;;6.20;;
74512;SDS011;62992;52.052;8.550;2022-12-11T13:07:22;16.55;;;7.40;;
74512;SDS011;62992;52.052;8.550;2022-12-11T13:10:24;16.52;;;6.63;;
74512;SDS011;62992;52.052;8.550;2022-12-11T13:13:32;16.67;;;6.93;;
74512;SDS011;62992;52.052;8.550;2022-12-11T13:19:00;16.40;;;6.47;;
74512;SDS011;62992;52.052;8.550;2022-12-11T13:21:53;14.77;;;6.88;;
74512;SDS011;62992;52.052;8.550;2022-12-11T13:24:44;15.95;;;7.13;;
74512;SDS011;62992;52.052;8.550;2022-12-11T13:27:36;17.70;;;7.88;;
74512;SDS011;62992;52.052;8.550;2022-12-11T13:30:23;19.10;;;7.70;;
74512;SDS011;62992;52.052;8.550;2022-12-11T13:33:16;18.42;;;8.00;;
74512;SDS011;62992;52.052;8.550;2022-12-11T13:36:14;16.80;;;7.68;;
74512;SDS011;62992;52.052;8.550;2022-12-11T13:39:05;15.80;;;8.55;;
74512;SDS011;62992;52.052;8.550;2022-12-11T13:42:02;18.40;;;7.85;;
74512;SDS011;62992;52.052;8.550;2022-12-11T13:44:48;18.17;;;8.05;;
74512;SDS011;62992;52.052;8.550;2022-12-11T13:47:33;18.90;;;8.97;;
74512;SDS011;62992;52.052;8.550;2022-12-11T13:50:29;23.15;;;8.93;;
74512;SDS011;62992;52.052;8.550;2022-12-11T13:53:18;17.60;;;8.63;;
74512;SDS011;62992;52.052;8.550;2022-12-11T13:56:05;19.30;;;8.48;;
74512;SDS011;62992;52.052;8.550;2022-12-11T13:58:50;20.30;;;8.27;;
74512;SDS011;62992;52.052;8.550;2022-12-11T14:01:34;12.98;;;6.60;;
74512;SDS011;62992;52.052;8.550;2022-12-11T14:04:18;19.00;;;8.30;;
74512;SDS011;62992;52.052;8.550;2022-12-11T14:07:05;17.08;;;8.20;;
74512;SDS011;62992;52.052;8.550;2022-12-11T14:09:52;17.40;;;7.38;;
74512;SDS011;62992;52.052;8.550;2022-12-11T14:16:00;16.23;;;7.70;;
74512;SDS011;62992;52.052;8.550;2022-12-11T14:18:47;16.10;;;7.38;;
74512;SDS011;62992;52.052;8.550;2022-12-11T14:21:34;19.70;;;7.60;;
74512;SDS011;62992;52.052;8.550;2022-12-11T14:24:19;17.13;;;8.10;;
74512;SDS011;62992;52.052;8.550;2022-12-11T14:27:03;20.83;;;7.82;;
74512;SDS011;62992;52.052;8.550;2022-12-11T14:29:56;17.67;;;9.00;;
74512;SDS011;62992;52.052;8.550;2022-12-11T14:32:41;24.30;;;8.82;;
74512;SDS011;62992;52.052;8.550;2022-12-11T14:35:28;21.42;;;10.02;;
74512;SDS011;62992;52.052;8.550;2022-12-11T14:38:20;22.65;;;9.52;;
74512;SDS011;62992;52.052;8.550;2022-12-11T14:44:05;22.80;;;9.30;;
74512;SDS011;62992;52.052;8.550;2022-12-11T14:46:57;20.77;;;8.55;;
74512;SDS011;62992;52.052;8.550;2022-12-11T14:50:00;20.40;;;7.90;;
74512;SDS011;62992;52.052;8.550;2022-12-11T14:52:56;17.63;;;8.47;;
74512;SDS011;62992;52.052;8.550;2022-12-11T14:55:44;18.20;;;9.48;;
74512;SDS011;62992;52.052;8.550;2022-12-11T14:58:30;19.63;;;9.57;;
74512;SDS011;62992;52.052;8.550;2022-12-11T15:06:57;20.98;;;8.57;;
74512;SDS011;62992;52.052;8.550;2022-12-11T15:09:45;17.50;;;7.70;;
74512;SDS011;62992;52.052;8.550;2022-12-11T15:12:29;20.00;;;8.52;;
74512;SDS011;62992;52.052;8.550;2022-12-11T15:15:14;21.25;;;9.10;;
74512;SDS011;62992;52.052;8.550;2022-12-11T15:18:00;18.88;;;8.90;;
74512;SDS011;62992;52.052;8.550;2022-12-11T15:20:53;22.98;;;9.73;;
74512;SDS011;62992;52.052;8.550;2022-12-11T15:26:46;19.48;;;9.32;;
74512;SDS011;62992;52.052;8.550;2022-12-11T15:29:32;17.95;;;8.48;;
74512;SDS011;62992;52.052;8.550;2022-12-11T15:32:21;22.05;;;8.45;;
74512;SDS011;62992;52.052;8.550;2022-12-11T15:35:23;20.35;;;8.70;;
74512;SDS011;62992;52.052;8.550;2022-12-11T15:38:24;21.90;;;9.00;;
74512;SDS011;62992;52.052;8.550;2022-12-11T15:41:16;24.38;;;8.55;;
74512;SDS011;62992;52.052;8.550;2022-12-11T15:44:03;22.05;;;8.95;;
74512;SDS011;62992;52.052;8.550;2022-12-11T15:46:48;19.15;;;9.27;;
74512;SDS011;62992;52.052;8.550;2022-12-11T15:49:32;23.10;;;8.63;;
74512;SDS011;62992;52.052;8.550;2022-12-11T15:52:16;21.60;;;9.18;;
74512;SDS011;62992;52.052;8.550;2022-12-11T15:55:02;20.95;;;9.18;;
74512;SDS011;62992;52.052;8.550;2022-12-11T16:00:31;17.92;;;7.15;;
74512;SDS011;62992;52.052;8.550;2022-12-11T16:03:16;23.88;;;9.38;;
74512;SDS011;62992;52.052;8.550;2022-12-11T16:06:02;22.90;;;8.73;;
74512;SDS011;62992;52.052;8.550;2022-12-11T16:08:46;23.05;;;9.25;;
74512;SDS011;62992;52.052;8.550;2022-12-11T16:11:30;19.88;;;8.18;;
74512;SDS011;62992;52.052;8.550;2022-12-11T16:14:15;20.50;;;9.13;;
74512;SDS011;62992;52.052;8.550;2022-12-11T16:16:59;23.67;;;9.65;;
74512;SDS011;62992;52.052;8.550;2022-12-11T16:19:43;22.23;;;8.73;;
74512;SDS011;62992;52.052;8.550;2022-12-11T16:22:27;19.48;;;9.15;;
74512;SDS011;62992;52.052;8.550;2022-12-11T16:25:11;21.23;;;10.07;;
74512;SDS011;62992;52.052;8.550;2022-12-11T16:27:56;20.60;;;9.20;;
74512;SDS011;62992;52.052;8.550;2022-12-11T16:33:26;22.48;;;10.20;;
74512;SDS011;62992;52.052;8.550;2022-12-11T16:36:11;17.83;;;9.50;;
74512;SDS011;62992;52.052;8.550;2022-12-11T16:41:41;21.15;;;8.07;;
74512;SDS011;62992;52.052;8.550;2022-12-11T16:44:25;19.35;;;9.25;;
74512;SDS011;62992;52.052;8.550;2022-12-11T16:47:09;22.13;;;9.05;;
74512;SDS011;62992;52.052;8.550;2022-12-11T16:49:53;20.23;;;8.70;;
74512;SDS011;62992;52.052;8.550;2022-12-11T16:52:41;18.80;;;8.85;;
74512;SDS011;62992;52.052;8.550;2022-12-11T16:55:26;16.90;;;7.47;;
74512;SDS011;62992;52.052;8.550;2022-12-11T16:58:10;20.02;;;8.95;;
74512;SDS011;62992;52.052;8.550;2022-12-11T17:00:58;16.40;;;8.57;;
74512;SDS011;62992;52.052;8.550;2022-12-11T17:03:45;21.67;;;9.35;;
74512;SDS011;62992;52.052;8.550;2022-12-11T17:06:29;17.35;;;8.88;;
74512;SDS011;62992;52.052;8.550;2022-12-11T17:09:14;20.52;;;8.32;;
74512;SDS011;62992;52.052;8.550;2022-12-11T17:11:58;20.08;;;8.63;;
74512;SDS011;62992;52.052;8.550;2022-12-11T17:14:42;21.45;;;8.68;;
74512;SDS011;62992;52.052;8.550;2022-12-11T17:17:27;19.33;;;8.93;;
74512;SDS011;62992;52.052;8.550;2022-12-11T17:20:11;18.35;;;9.13;;
74512;SDS011;62992;52.052;8.550;2022-12-11T17:22:55;23.33;;;10.27;;
74512;SDS011;62992;52.052;8.550;2022-12-11T17:25:39;22.25;;;9.95;;
74512;SDS011;62992;52.052;8.550;2022-12-11T17:28:24;25.00;;;10.13;;
74512;SDS011;62992;52.052;8.550;2022-12-11T17:31:10;26.60;;;10.00;;
74512;SDS011;62992;52.052;8.550;2022-12-11T17:33:58;19.13;;;9.35;;
74512;SDS011;62992;52.052;8.550;2022-12-11T17:36:45;22.73;;;10.73;;
74512;SDS011;62992;52.052;8.550;2022-12-11T17:39:30;25.77;;;10.35;;
74512;SDS011;62992;52.052;8.550;2022-12-11T17:42:14;24.83;;;10.60;;
74512;SDS011;62992;52.052;8.550;2022-12-11T17:44:58;31.02;;;12.13;;